x

Buoy B01 - Western Maine Shelf (44030) Wave Buoy

7:04 - Mon 4th May 2015 All times are EDT. -4 hours from GMT.

  • Sig Wave height 3.6ft
  • Peak Period 8s
  • Wind
    9mph, 11mph gusts
  • Sea Temp 44°f
  • Luft Temp 48°f
  • Sea Pressure 1019.7mb
  • Buoy B01 - Western Maine Shelf
  • Buoy B01 - Western Maine Shelf

More Historic Weather Station data

Upgrade to MSW Pro to gain access to the past 30 days of data for over 8000 Wavebouys and Weather Stations around the globe.

Join Pro

Comparision Forecast

View Surf forecast
   
Mo 05/04 7:04 3.5ft 8s 9 11 mph 1019.7mb 44f 48f
6:04 3.5ft 11s 11
mph
1019.1mb 45f 48f
5:04 3.5ft 8s 9 11 mph 1018.7mb 45f 48f
4:04 3.5ft 11s 11
mph
1018.7mb 46f 48f
3:04 3.5ft 11s 11 13 mph 1018.4mb 47f 49f
2:04 3ft 6s 11 13 mph 1018.3mb 47f 49f
1:04 2.5ft 5s 13 16 mph 1018.1mb 47f 50f
12:04 3.5ft 5s 11 13 mph 1017.8mb 47f 50f
So 05/03 11:04 3.5ft 5s 11 13 mph 1017.5mb 47f 50f
10:04 4ft 11s 11
mph
1017.6mb 47f 50f
9:04 3.5ft 5s 11
mph
1017.4mb 48f 50f
8:04 3.5ft 11s 9 11 mph 1016.9mb 48f 50f
7:04 3ft 8s 11 13 mph 1016.5mb 48f 50f
6:04 2.5ft 5s 11 13 mph 1016.6mb 48f 50f
5:04  -   -  13
mph
1016.5mb 48f 50f
4:04 3ft 8s 11 13 mph 1016.6mb 48f 49f
3:04 3ft 8s 11 13 mph 1016.7mb 48f 49f
2:04 3ft 11s 9 11 mph 1016.8mb 48f 48f
1:04 3.5ft 8s 11
mph
1016.9mb 48f 47f
12:04 3ft 8s 7 9 mph 1016.8mb 48f 48f
11:04 3.5ft 8s 7 9 mph 1016.8mb 47f 47f
10:04 3ft 8s 4
mph
1016.6mb 47f 47f
9:04 2.5ft 8s 2
mph
1016.7mb 46f 47f
8:04 2.5ft 8s 9
mph
1016.2mb 46f 46f
7:04 2.5ft 8s 7 9 mph 1015.8mb 46f 46f
6:04 3ft 8s 4 7 mph 1015.3mb 46f 46f
5:04 2.5ft 11s 9 11 mph 1014.8mb 46f 46f
4:04 3ft 11s 9 11 mph 1014.5mb 46f 45f
3:04 3ft 11s 9
mph
1014.6mb 46f 42f
2:04 3ft 8s 4 7 mph 1014.8mb 46f 44f
1:04 3ft 11s 4 7 mph 1014.9mb 46f 44f
12:04 2.5ft 8s 7
mph
1014.8mb 46f 44f
Sa 05/02 11:04 3ft 8s 9 11 mph 1014.8mb 46f 44f
10:04 3ft 8s 11 13 mph 1014.9mb 45f 44f
9:04 3ft 8s 11
mph
1014.6mb 45f 43f
8:04 3ft 8s 11 13 mph 1013.8mb 44f 43f
7:04 3.5ft 8s 11 13 mph 1013.4mb 44f 42f
6:04 3ft 8s 13 16 mph 1013.2mb 44f 42f
5:04 2.5ft 8s 13 16 mph 1013.3mb 44f 42f
4:04 1.6ft 3s 13 16 mph 1013.6mb 44f 41f
3:04 2.5ft 6s 13 16 mph 1013.9mb 44f 40f
2:04 2.5ft 6s 13 16 mph 1014.2mb 45f 40f
1:04 2.5ft 6s 11 13 mph 1014.4mb 45f 40f
12:04 2.5ft 8s 7 9 mph 1014.7mb 44f 39f
11:04 2.5ft 6s 7 9 mph 1015.2mb 44f 39f
10:04 2.5ft 6s 4 7 mph 1015.6mb 44f 39f
9:04 2.5ft 8s 4 7 mph 1015.6mb 43f 39f
8:04 2.5ft 6s 2
mph
1015.5mb 43f 39f
7:04 2.5ft 8s 2 4 mph 1015.3mb 43f 39f
6:04 2.5ft 11s 2
mph
1015.1mb 43f 39f
5:04 2.5ft 11s 2 4 mph 1014.7mb 44f 40f
4:04 2.5ft 8s 2 4 mph 1014.5mb 44f 40f
3:04 1.6ft 5s 2 4 mph 1014.6mb 45f 41f
2:04 2ft 5s 7 11 mph 1014.8mb 45f 41f
1:04 2ft 6s 9 13 mph 1014.8mb 45f 41f
12:04 2.5ft 6s 9 11 mph 1014.6mb 45f 42f
Fr 05/01 11:04 2.5ft 5s 9 11 mph 1014.5mb 45f 42f
10:04 2.5ft 6s 7 9 mph 1014.5mb 45f 42f
9:04 2.5ft 8s 7
mph
1014.5mb 45f 43f
8:04 2.5ft 6s 7 9 mph 1014.2mb 45f 42f
7:04 3ft 6s 9 11 mph 1014.1mb 45f 42f
6:04 3ft 6s 11
mph
1014.2mb 45f 42f
5:04 3ft 6s 11 13 mph 1014.3mb 45f 42f
4:04 3.5ft 6s 11 13 mph 1014.4mb 45f 42f
3:04 3.5ft 5s 11 13 mph 1014.5mb 46f 42f
2:04 3ft 6s 9 11 mph 1014.7mb 45f 42f
1:04 3.5ft 6s 11
mph
1014.9mb 45f 42f
12:04 4.5ft 6s 11
mph
1014.9mb 45f 42f
11:04 3.5ft 6s 13 16 mph 1015.1mb 45f 42f
10:04 3.5ft 6s 13 16 mph 1015.1mb 45f 42f
9:04 3.5ft 8s 11 13 mph 1015.1mb 45f 43f
8:04 3ft 8s 9 13 mph 1014.8mb 46f 43f
7:04 3.5ft 8s 4
mph
1014.5mb 47f 45f
6:04 3ft 8s 4
mph
1014.1mb 46f 44f
5:04 3ft 8s 4
mph
1013.7mb 46f 44f
4:04 2.5ft 8s 4
mph
1013.7mb 46f 44f
3:04 2.5ft 6s 4
mph
1013.8mb 45f 44f
2:04 2.5ft 8s 4 7 mph 1013.8mb 45f 45f
1:04 2.5ft 8s 2 4 mph 1014mb 45f 44f
12:04 2.5ft 11s 2
mph
1014mb 45f 44f
Do 04/30 11:04 3ft 11s 2 4 mph 1013.8mb 45f 44f
10:04 3ft 11s 2 4 mph 1013.7mb 45f 44f
9:04 2.5ft 11s  -  2 mph 1012.9mb 45f 44f
8:04 2.5ft 8s 4
mph
1012.1mb 45f 44f
6:04 3ft 8s 11 13 mph 1011mb 45f 46f
5:04 3.5ft 11s 7 9 mph 1010.5mb 46f 47f
4:04 3.5ft 11s 4
mph
1009.7mb 44f 48f
3:04 2.5ft 11s 4 7 mph 1009.6mb 45f 48f
2:04 3ft 11s 4 7 mph 1009.6mb 47f 48f
1:04 2.5ft 11s 4 7 mph 1009.5mb 46f 48f